createdAt,value
2022-08-04T00:01:22.879Z,27.10
2022-08-04T00:04:19.197Z,27.05
2022-08-04T00:07:44.349Z,27.01
2022-08-04T00:10:16.430Z,26.96
2022-08-04T00:12:48.244Z,26.95
2022-08-04T00:15:22.554Z,26.94
2022-08-04T00:18:02.616Z,26.93
2022-08-04T00:20:34.476Z,26.91
2022-08-04T00:23:03.130Z,26.92
2022-08-04T00:25:32.666Z,26.91
2022-08-04T00:28:04.500Z,26.89
2022-08-04T00:30:33.690Z,26.89
2022-08-04T00:33:02.461Z,26.87
2022-08-04T00:35:34.459Z,26.84
2022-08-04T00:38:03.334Z,26.84
2022-08-04T00:40:50.615Z,26.82
2022-08-04T00:43:36.560Z,26.83
2022-08-04T00:46:33.806Z,26.79
2022-08-04T00:49:44.380Z,26.72
2022-08-04T00:52:30.932Z,26.70
2022-08-04T00:55:36.566Z,26.63
2022-08-04T00:58:45.508Z,26.59
2022-08-04T01:02:01.661Z,26.52
2022-08-04T01:04:55.816Z,26.50
2022-08-04T01:07:52.576Z,26.48
2022-08-04T01:10:45.527Z,26.48
2022-08-04T01:13:44.542Z,26.43
2022-08-04T01:16:16.788Z,26.43
2022-08-04T01:19:08.037Z,26.40
2022-08-04T01:22:28.492Z,26.36
2022-08-04T01:25:41.315Z,26.32
2022-08-04T01:28:49.678Z,26.29
2022-08-04T01:31:34.998Z,26.26
2022-08-04T01:34:07.487Z,26.27
2022-08-04T01:36:38.291Z,26.28
2022-08-04T01:39:28.035Z,26.25
2022-08-04T01:41:58.728Z,26.22
2022-08-04T01:44:29.803Z,26.21
2022-08-04T01:46:57.377Z,26.17
2022-08-04T01:49:29.652Z,26.16
2022-08-04T01:52:03.135Z,26.12
2022-08-04T01:54:37.260Z,26.10
2022-08-04T01:57:38.243Z,26.09
2022-08-04T01:59:56.272Z,26.04
2022-08-04T02:02:27.139Z,26.01
2022-08-04T02:04:54.342Z,25.99
2022-08-04T02:07:57.588Z,25.95
2022-08-04T02:10:42.911Z,25.92
2022-08-04T02:13:36.345Z,25.91
2022-08-04T02:16:20.555Z,25.90
2022-08-04T02:19:05.548Z,25.90
2022-08-04T02:21:42.477Z,25.90
2022-08-04T02:24:17.304Z,25.88
2022-08-04T02:26:52.678Z,25.87
2022-08-04T02:29:32.196Z,25.86
2022-08-04T02:32:22.434Z,25.81
2022-08-04T02:35:17.462Z,25.79
2022-08-04T02:37:54.077Z,25.80
2022-08-04T02:40:24.993Z,25.78
2022-08-04T02:43:02.512Z,25.77
2022-08-04T02:45:32.041Z,25.75
2022-08-04T02:48:30.481Z,25.72
2022-08-04T02:50:55.906Z,25.71
2022-08-04T02:53:25.481Z,25.68
2022-08-04T02:55:58.519Z,25.66
2022-08-04T02:58:34.201Z,25.63
2022-08-04T03:01:05.343Z,25.59
2022-08-04T03:03:46.960Z,25.59
2022-08-04T03:06:44.563Z,25.54
2022-08-04T03:10:07.383Z,25.49
2022-08-04T03:13:13.329Z,25.42
2022-08-04T03:16:32.619Z,25.37
2022-08-04T03:20:04.430Z,25.31
2022-08-04T03:23:11.580Z,25.31
2022-08-04T03:26:11.635Z,25.27
2022-08-04T03:29:09.296Z,25.27
2022-08-04T03:32:39.552Z,25.23
2022-08-04T03:35:27.185Z,25.22
2022-08-04T03:38:27.045Z,25.20
2022-08-04T03:41:55.129Z,25.19
2022-08-04T03:45:23.796Z,25.16
2022-08-04T03:48:48.777Z,25.10
2022-08-04T03:52:00.018Z,25.08
2022-08-04T03:55:17.526Z,25.09
2022-08-04T03:58:10.249Z,25.05
2022-08-04T04:00:57.904Z,25.10
2022-08-04T04:04:00.363Z,25.04
2022-08-04T04:07:35.745Z,25.04
2022-08-04T04:10:28.687Z,24.99
2022-08-04T04:13:27.232Z,24.96
2022-08-04T04:16:30.230Z,24.98
2022-08-04T04:19:58.263Z,24.94
2022-08-04T04:22:50.549Z,24.95
2022-08-04T04:25:47.510Z,24.93
2022-08-04T04:28:45.056Z,24.94
2022-08-04T04:31:54.683Z,24.93
2022-08-04T04:35:12.207Z,24.95
2022-08-04T04:38:07.755Z,24.96
2022-08-04T04:40:49.881Z,25.05
2022-08-04T04:43:50.935Z,25.12
2022-08-04T04:46:46.410Z,25.19
2022-08-04T04:49:54.672Z,25.32
2022-08-04T04:52:58.322Z,25.44
2022-08-04T04:55:56.144Z,25.59
2022-08-04T04:58:31.593Z,25.77
2022-08-04T05:01:47.991Z,25.94
2022-08-04T05:05:12.264Z,26.13
2022-08-04T05:08:44.251Z,26.32
2022-08-04T05:11:47.665Z,26.55
2022-08-04T05:14:52.162Z,26.81
2022-08-04T05:17:39.456Z,27.05
2022-08-04T05:20:43.322Z,27.32
2022-08-04T05:24:00.922Z,27.55
2022-08-04T05:26:37.475Z,27.81
2022-08-04T05:29:13.430Z,28.05
2022-08-04T05:31:56.270Z,28.26
2022-08-04T05:34:42.893Z,28.44
2022-08-04T05:37:17.462Z,28.60
2022-08-04T05:40:09.387Z,28.77
2022-08-04T05:42:44.383Z,28.93
2022-08-04T05:45:48.773Z,29.06
2022-08-04T05:48:23.445Z,29.25
2022-08-04T05:51:01.349Z,29.43
2022-08-04T05:53:47.161Z,29.62
2022-08-04T05:56:26.576Z,29.85
2022-08-04T05:59:07.200Z,30.06
2022-08-04T06:01:56.695Z,30.29
2022-08-04T06:04:36.219Z,30.54
2022-08-04T06:07:06.216Z,30.82
2022-08-04T06:09:39.550Z,31.11
2022-08-04T06:12:40.079Z,31.40
2022-08-04T06:15:33.013Z,31.71
2022-08-04T06:19:56.951Z,31.96
2022-08-04T06:21:15.989Z,32.23
2022-08-04T06:24:00.765Z,32.46
2022-08-04T06:26:35.294Z,32.67
2022-08-04T06:29:20.342Z,32.90
2022-08-04T06:32:30.239Z,33.13
2022-08-04T06:35:06.276Z,33.38
2022-08-04T06:37:46.992Z,33.59
2022-08-04T06:40:32.022Z,33.82
2022-08-04T06:43:11.213Z,34.08
2022-08-04T06:45:57.363Z,34.32
2022-08-04T06:48:33.668Z,34.54
2022-08-04T06:51:27.575Z,34.80
2022-08-04T06:54:01.126Z,35.07
2022-08-04T06:56:31.208Z,35.31
2022-08-04T06:59:16.730Z,35.58
2022-08-04T07:02:04.166Z,35.82
2022-08-04T07:04:35.631Z,36.07
2022-08-04T07:07:08.144Z,36.36
2022-08-04T07:09:39.170Z,36.64
2022-08-04T07:12:11.174Z,36.92
2022-08-04T07:14:46.545Z,37.18
2022-08-04T07:17:24.243Z,37.47
2022-08-04T07:19:59.123Z,37.80
2022-08-04T07:22:31.638Z,38.21
2022-08-04T07:28:10.038Z,39.28
2022-08-04T07:30:55.604Z,39.95
2022-08-04T07:34:17.154Z,40.84
2022-08-04T07:36:50.512Z,41.73
2022-08-04T07:39:26.524Z,42.44
2022-08-04T07:42:04.416Z,43.15
2022-08-04T07:44:50.764Z,43.85
2022-08-04T07:47:33.243Z,44.67
2022-08-04T07:50:13.382Z,45.46
2022-08-04T07:53:22.722Z,46.27
2022-08-04T07:58:33.556Z,47.87
2022-08-04T08:01:17.333Z,48.58
2022-08-04T08:03:53.875Z,49.24
2022-08-04T08:06:32.399Z,49.89
2022-08-04T08:09:13.682Z,50.56
2022-08-04T08:12:38.495Z,51.15
2022-08-04T08:15:03.219Z,51.81
2022-08-04T08:17:58.476Z,52.33
2022-08-04T08:20:42.913Z,52.84
2022-08-04T08:23:20.034Z,53.22
2022-08-04T08:26:11.202Z,53.52
2022-08-04T08:28:48.940Z,53.78
2022-08-04T08:31:56.620Z,54.19
2022-08-04T08:34:27.908Z,54.61
2022-08-04T08:38:02.641Z,55.03
2022-08-04T08:41:30.555Z,55.47
2022-08-04T08:44:43.074Z,55.76
2022-08-04T08:48:05.991Z,55.83
2022-08-04T08:51:39.236Z,55.86
2022-08-04T08:54:23.358Z,55.77
2022-08-04T08:57:21.432Z,55.41
2022-08-04T09:00:31.804Z,54.83
2022-08-04T09:03:43.089Z,54.50
2022-08-04T09:07:01.020Z,54.48
2022-08-04T09:10:11.308Z,54.53
2022-08-04T09:12:58.659Z,54.37
2022-08-04T09:16:09.836Z,54.12
2022-08-04T09:19:37.315Z,53.92
2022-08-04T09:22:28.368Z,53.60
2022-08-04T09:25:32.063Z,53.12
2022-08-04T09:28:50.766Z,52.55
2022-08-04T09:31:20.145Z,51.96
2022-08-04T09:34:33.087Z,51.59
2022-08-04T09:37:48.164Z,51.03
2022-08-04T09:40:53.916Z,50.62
2022-08-04T09:44:49.797Z,49.96
2022-08-04T09:47:55.893Z,49.18
2022-08-04T09:54:30.289Z,48.13
2022-08-04T09:57:17.065Z,47.81
2022-08-04T09:59:59.037Z,47.56
2022-08-04T10:02:43.966Z,47.44
2022-08-04T10:09:05.422Z,47.89
2022-08-04T10:12:26.313Z,48.28
2022-08-04T10:15:27.987Z,48.86
2022-08-04T10:17:56.353Z,49.43
2022-08-04T10:21:10.418Z,49.94
2022-08-04T10:24:44.763Z,50.33
2022-08-04T10:27:41.833Z,50.57
2022-08-04T10:30:25.005Z,50.56
2022-08-04T10:33:47.925Z,50.48
2022-08-04T10:36:33.891Z,50.61
2022-08-04T10:39:22.244Z,50.61
2022-08-04T10:42:39.934Z,50.40
2022-08-04T10:45:36.165Z,50.05
2022-08-04T10:48:34.287Z,49.55
2022-08-04T10:55:06.789Z,48.15
2022-08-04T10:57:52.469Z,47.53
2022-08-04T11:00:31.046Z,46.96
2022-08-04T11:03:56.333Z,46.22
2022-08-04T11:06:26.781Z,45.58
2022-08-04T11:08:56.933Z,45.02
2022-08-04T11:12:01.115Z,44.36
2022-08-04T11:14:58.939Z,43.72
2022-08-04T11:17:57.994Z,42.93
2022-08-04T11:27:05.018Z,40.93
2022-08-04T11:29:59.144Z,40.41
2022-08-04T11:32:54.141Z,40.01
2022-08-04T11:36:20.135Z,39.63
2022-08-04T11:39:07.826Z,39.47
2022-08-04T11:42:02.801Z,39.43
2022-08-04T11:44:45.876Z,39.34
2022-08-04T11:47:39.778Z,39.23
2022-08-04T11:50:53.468Z,39.13
2022-08-04T11:53:36.777Z,39.09
2022-08-04T11:56:13.562Z,39.05
2022-08-04T11:59:11.555Z,39.03
2022-08-04T12:02:22.374Z,39.04
2022-08-04T12:05:02.453Z,39.06
2022-08-04T12:08:04.970Z,39.12
2022-08-04T12:11:00.457Z,39.24
2022-08-04T12:14:35.128Z,39.44
2022-08-04T12:17:12.586Z,39.68
2022-08-04T12:22:48.208Z,40.12
2022-08-04T12:31:43.117Z,40.66
2022-08-04T12:34:39.137Z,40.73
2022-08-04T12:37:44.041Z,40.81
2022-08-04T12:40:31.653Z,40.83
2022-08-04T12:43:44.690Z,40.82
2022-08-04T12:46:22.830Z,40.82
2022-08-04T12:49:00.986Z,40.80
2022-08-04T12:52:07.524Z,40.79
2022-08-04T12:54:31.379Z,40.81
2022-08-04T12:57:11.330Z,40.84
2022-08-04T12:59:47.173Z,40.90
2022-08-04T13:02:30.767Z,40.97
2022-08-04T13:05:16.985Z,41.05
2022-08-04T13:07:59.338Z,41.09
2022-08-04T13:10:31.125Z,41.12
2022-08-04T13:13:37.946Z,41.07
2022-08-04T13:16:17.081Z,41.04
2022-08-04T13:18:53.764Z,40.95
2022-08-04T13:22:02.304Z,40.87
2022-08-04T13:24:32.229Z,40.74
2022-08-04T13:27:16.292Z,40.66
2022-08-04T13:29:59.524Z,40.55
2022-08-04T13:32:57.957Z,40.45
2022-08-04T13:35:56.173Z,40.33
2022-08-04T13:38:25.754Z,40.17
2022-08-04T13:41:09.078Z,40.04
2022-08-04T13:44:17.605Z,39.85
2022-08-04T13:47:01.031Z,39.59
2022-08-04T13:49:42.503Z,39.41
2022-08-04T13:52:29.459Z,39.57
2022-08-04T13:54:58.789Z,39.16
2022-08-04T13:57:41.470Z,38.82
2022-08-04T14:00:15.635Z,38.54
2022-08-04T14:03:54.220Z,38.21
2022-08-04T14:06:33.470Z,37.96
2022-08-04T14:09:35.373Z,37.74
2022-08-04T14:12:45.651Z,37.53
2022-08-04T14:16:02.661Z,37.19
2022-08-04T14:18:37.357Z,36.99
2022-08-04T14:21:11.324Z,36.85
2022-08-04T14:23:56.800Z,36.65
2022-08-04T14:26:34.233Z,36.53
2022-08-04T14:29:26.976Z,36.38
2022-08-04T14:32:06.078Z,36.28
2022-08-04T14:35:12.496Z,36.17
2022-08-04T14:38:03.516Z,36.07
2022-08-04T14:40:35.710Z,35.98
2022-08-04T14:43:09.494Z,35.90
2022-08-04T14:46:13.343Z,35.79
2022-08-04T14:52:01.692Z,35.62
2022-08-04T14:54:37.100Z,35.52
2022-08-04T14:57:10.292Z,35.45
2022-08-04T15:00:10.600Z,35.39
2022-08-04T15:02:44.307Z,35.31
2022-08-04T15:06:03.061Z,35.26
2022-08-04T15:08:09.721Z,35.11
2022-08-04T15:10:40.043Z,35.03
2022-08-04T15:13:12.892Z,34.92
2022-08-04T15:15:41.962Z,34.79
2022-08-04T15:18:18.551Z,34.67
2022-08-04T15:20:59.705Z,34.55
2022-08-04T15:23:39.503Z,34.45
2022-08-04T15:26:16.802Z,34.33
2022-08-04T15:28:53.065Z,34.23
2022-08-04T15:32:04.074Z,34.15
2022-08-04T15:34:51.276Z,34.03
2022-08-04T15:38:05.603Z,33.96
2022-08-04T15:40:50.588Z,34.02
2022-08-04T15:43:55.270Z,34.03
2022-08-04T15:46:46.718Z,34.06
2022-08-04T15:49:30.857Z,34.12
2022-08-04T15:52:20.791Z,34.17
2022-08-04T15:54:52.456Z,34.23
2022-08-04T15:58:09.759Z,34.35
2022-08-04T16:01:25.864Z,34.48
2022-08-04T16:04:00.403Z,34.62
2022-08-04T16:06:29.498Z,34.75
2022-08-04T16:09:09.413Z,34.89
2022-08-04T16:11:45.560Z,35.01
2022-08-04T16:14:19.625Z,35.15
2022-08-04T16:16:50.477Z,35.29
2022-08-04T16:19:46.429Z,35.38
2022-08-04T16:22:38.415Z,35.45
2022-08-04T16:25:09.898Z,35.53
2022-08-04T16:27:55.308Z,35.65
2022-08-04T16:30:29.284Z,35.76
2022-08-04T16:33:16.853Z,35.82
2022-08-04T16:36:10.559Z,35.84
2022-08-04T16:39:05.343Z,35.74
2022-08-04T16:41:47.424Z,35.73
2022-08-04T16:44:52.549Z,35.67
2022-08-04T16:47:49.472Z,35.51
2022-08-04T16:50:25.430Z,35.45
2022-08-04T16:53:01.159Z,35.34
2022-08-04T16:55:53.674Z,35.18
2022-08-04T16:58:56.059Z,35.04
2022-08-04T17:01:34.558Z,34.91
2022-08-04T17:04:08.867Z,34.80
2022-08-04T17:06:49.446Z,34.71
2022-08-04T17:09:30.889Z,34.64
2022-08-04T17:12:01.464Z,34.52
2022-08-04T17:14:33.892Z,34.44
2022-08-04T17:17:08.698Z,34.35
2022-08-04T17:19:39.860Z,34.24
2022-08-04T17:22:15.686Z,34.15
2022-08-04T17:24:53.942Z,33.95
2022-08-04T17:28:19.165Z,33.77
2022-08-04T17:30:37.619Z,33.60
2022-08-04T17:33:22.911Z,33.43
2022-08-04T17:36:22.910Z,33.30
2022-08-04T17:39:17.264Z,33.16
2022-08-04T17:41:49.758Z,33.08
2022-08-04T17:44:44.761Z,32.95
2022-08-04T17:47:23.452Z,32.86
2022-08-04T17:50:06.619Z,32.80
2022-08-04T17:52:44.616Z,32.73
2022-08-04T17:55:20.835Z,32.65
2022-08-04T18:00:43.645Z,32.53
2022-08-04T18:03:59.720Z,32.42
2022-08-04T18:06:40.315Z,32.38
2022-08-04T18:12:14.785Z,32.26
2022-08-04T18:14:53.588Z,32.21
2022-08-04T18:18:20.061Z,32.12
2022-08-04T18:21:03.480Z,32.05
2022-08-04T18:24:00.718Z,31.97
2022-08-04T18:29:31.859Z,31.87
2022-08-04T18:32:23.692Z,31.84
2022-08-04T18:35:05.765Z,31.76
2022-08-04T18:38:05.056Z,31.71
2022-08-04T18:40:52.851Z,31.62
2022-08-04T18:43:40.785Z,31.57
2022-08-04T18:46:17.504Z,31.50
2022-08-04T18:48:52.613Z,31.44
2022-08-04T18:51:23.690Z,31.35
2022-08-04T18:53:58.643Z,31.24
2022-08-04T18:57:05.264Z,31.16
2022-08-04T18:59:31.253Z,31.03
2022-08-04T19:02:16.995Z,30.93
2022-08-04T19:04:52.268Z,30.81
2022-08-04T19:08:11.511Z,30.74
2022-08-04T19:10:24.104Z,30.65
2022-08-04T19:12:59.664Z,30.61
2022-08-04T19:15:34.476Z,30.53
2022-08-04T19:18:14.082Z,30.43
2022-08-04T19:21:05.139Z,30.37
2022-08-04T19:24:29.758Z,30.29
2022-08-04T19:26:28.174Z,30.19
2022-08-04T19:29:04.222Z,30.14
2022-08-04T19:31:41.983Z,30.07
2022-08-04T19:34:12.995Z,30.00
2022-08-04T19:36:40.167Z,29.95
2022-08-04T19:39:13.496Z,29.90
2022-08-04T19:42:04.714Z,29.84
2022-08-04T19:44:33.953Z,29.78
2022-08-04T19:48:11.371Z,29.72
2022-08-04T19:50:05.138Z,29.63
2022-08-04T19:52:52.736Z,29.58
2022-08-04T19:55:39.176Z,29.52
2022-08-04T19:58:08.340Z,29.46
2022-08-04T20:00:51.357Z,29.41
2022-08-04T20:04:09.922Z,29.36
2022-08-04T20:06:20.773Z,29.30
2022-08-04T20:08:51.624Z,29.23
2022-08-04T20:11:24.615Z,29.22
2022-08-04T20:14:07.936Z,29.18
2022-08-04T20:16:41.118Z,29.13
2022-08-04T20:19:13.813Z,29.08
2022-08-04T20:21:54.760Z,29.06
2022-08-04T20:24:40.010Z,29.00
2022-08-04T20:27:16.284Z,28.98
2022-08-04T20:29:49.239Z,28.98
2022-08-04T20:32:25.251Z,28.96
2022-08-04T20:35:00.075Z,28.95
2022-08-04T20:40:32.717Z,28.89
2022-08-04T20:43:01.034Z,28.91
2022-08-04T20:45:57.023Z,28.93
2022-08-04T20:48:28.453Z,28.92
2022-08-04T20:51:08.535Z,28.91
2022-08-04T20:53:52.978Z,28.91
2022-08-04T20:56:31.406Z,28.87
2022-08-04T20:59:08.168Z,28.89
2022-08-04T21:01:39.809Z,28.84
2022-08-04T21:04:35.452Z,28.82
2022-08-04T21:07:10.993Z,28.77
2022-08-04T21:09:50.793Z,28.74
2022-08-04T21:12:29.319Z,28.77
2022-08-04T21:15:13.314Z,28.74
2022-08-04T21:17:56.972Z,28.70
2022-08-04T21:20:30.175Z,28.66
2022-08-04T21:23:03.670Z,28.62
2022-08-04T21:25:32.567Z,28.61
2022-08-04T21:28:11.660Z,28.58
2022-08-04T21:30:52.626Z,28.53
2022-08-04T21:33:50.222Z,28.48
2022-08-04T21:36:12.431Z,28.42
2022-08-04T21:38:51.431Z,28.41
2022-08-04T21:41:20.383Z,28.39
2022-08-04T21:43:56.186Z,28.33
2022-08-04T21:46:25.827Z,28.31
2022-08-04T21:49:02.027Z,28.28
2022-08-04T21:51:59.261Z,28.22
2022-08-04T21:54:22.367Z,28.12
2022-08-04T21:56:53.492Z,28.02
2022-08-04T21:59:31.016Z,27.87
2022-08-04T22:02:00.857Z,27.70
2022-08-04T22:04:29.967Z,27.53
2022-08-04T22:07:03.319Z,27.42
2022-08-04T22:09:30.877Z,27.27
2022-08-04T22:12:06.963Z,27.06
2022-08-04T22:14:39.297Z,26.88
2022-08-04T22:17:06.394Z,26.73
2022-08-04T22:19:55.472Z,26.53
2022-08-04T22:22:29.290Z,26.36
2022-08-04T22:25:06.196Z,26.20
2022-08-04T22:28:01.740Z,26.11
2022-08-04T22:30:37.362Z,25.97
2022-08-04T22:33:08.609Z,25.90
2022-08-04T22:35:49.037Z,25.80
2022-08-04T22:38:27.914Z,25.69
2022-08-04T22:41:11.421Z,25.59
2022-08-04T22:43:39.940Z,25.52
2022-08-04T22:46:27.603Z,25.46
2022-08-04T22:48:55.146Z,25.38
2022-08-04T22:51:23.957Z,25.32
2022-08-04T22:53:57.115Z,25.22
2022-08-04T22:56:38.360Z,25.16
2022-08-04T22:59:10.120Z,25.03
2022-08-04T23:01:58.917Z,24.97
2022-08-04T23:04:28.168Z,24.84
2022-08-04T23:07:09.624Z,24.73
2022-08-04T23:09:50.488Z,24.62
2022-08-04T23:12:27.251Z,24.51
2022-08-04T23:14:57.271Z,24.42
2022-08-04T23:17:27.331Z,24.35
2022-08-04T23:19:59.321Z,24.31
2022-08-04T23:22:41.454Z,24.27
2022-08-04T23:25:16.246Z,24.27
2022-08-04T23:27:51.659Z,24.25
2022-08-04T23:30:29.830Z,24.23
2022-08-04T23:32:58.523Z,24.21
2022-08-04T23:35:25.780Z,24.21
2022-08-04T23:37:56.746Z,24.20
2022-08-04T23:40:32.451Z,24.20
2022-08-04T23:43:01.989Z,24.21
2022-08-04T23:46:04.486Z,24.19
2022-08-04T23:48:20.918Z,24.14
2022-08-04T23:50:48.351Z,24.10
2022-08-04T23:53:18.595Z,24.04
2022-08-04T23:55:56.824Z,23.96
2022-08-04T23:58:28.271Z,23.94
